sensor_id;sensor_type;location;lat;lon;timestamp;P1;durP1;ratioP1;P2;durP2;ratioP2
50367;SDS011;36281;34.132;-118.018;2023-04-21T00:00:07;8.15;;;3.95;;
50367;SDS011;36281;34.132;-118.018;2023-04-21T00:02:37;8.10;;;4.00;;
50367;SDS011;36281;34.132;-118.018;2023-04-21T00:05:09;12.75;;;4.22;;
50367;SDS011;36281;34.132;-118.018;2023-04-21T00:07:42;8.00;;;3.63;;
50367;SDS011;36281;34.132;-118.018;2023-04-21T00:10:11;7.13;;;3.60;;
50367;SDS011;36281;34.132;-118.018;2023-04-21T00:12:40;6.95;;;4.05;;
50367;SDS011;36281;34.132;-118.018;2023-04-21T00:15:09;11.32;;;4.00;;
50367;SDS011;36281;34.132;-118.018;2023-04-21T00:17:39;9.20;;;3.72;;
50367;SDS011;36281;34.132;-118.018;2023-04-21T00:20:08;9.60;;;3.63;;
50367;SDS011;36281;34.132;-118.018;2023-04-21T00:22:38;10.65;;;3.78;;
50367;SDS011;36281;34.132;-118.018;2023-04-21T00:25:09;10.60;;;4.40;;
50367;SDS011;36281;34.132;-118.018;2023-04-21T00:27:38;8.60;;;4.15;;
50367;SDS011;36281;34.132;-118.018;2023-04-21T00:30:07;6.82;;;3.40;;
50367;SDS011;36281;34.132;-118.018;2023-04-21T00:32:37;12.73;;;4.70;;
50367;SDS011;36281;34.132;-118.018;2023-04-21T00:35:06;8.88;;;3.78;;
50367;SDS011;36281;34.132;-118.018;2023-04-21T00:37:36;8.88;;;3.78;;
50367;SDS011;36281;34.132;-118.018;2023-04-21T00:40:05;8.10;;;3.65;;
50367;SDS011;36281;34.132;-118.018;2023-04-21T00:42:37;9.50;;;3.72;;
50367;SDS011;36281;34.132;-118.018;2023-04-21T00:45:06;6.45;;;3.50;;
50367;SDS011;36281;34.132;-118.018;2023-04-21T00:47:35;6.32;;;3.58;;
50367;SDS011;36281;34.132;-118.018;2023-04-21T00:50:05;8.73;;;3.63;;
50367;SDS011;36281;34.132;-118.018;2023-04-21T00:52:34;7.13;;;3.50;;
50367;SDS011;36281;34.132;-118.018;2023-04-21T00:55:06;7.30;;;3.88;;
50367;SDS011;36281;34.132;-118.018;2023-04-21T00:57:37;6.82;;;3.60;;
50367;SDS011;36281;34.132;-118.018;2023-04-21T01:00:07;11.82;;;3.75;;
50367;SDS011;36281;34.132;-118.018;2023-04-21T01:02:37;8.77;;;3.80;;
50367;SDS011;36281;34.132;-118.018;2023-04-21T01:05:08;6.88;;;3.63;;
50367;SDS011;36281;34.132;-118.018;2023-04-21T01:07:38;6.53;;;3.58;;
50367;SDS011;36281;34.132;-118.018;2023-04-21T01:10:08;10.13;;;3.67;;
50367;SDS011;36281;34.132;-118.018;2023-04-21T01:12:45;6.53;;;3.17;;
50367;SDS011;36281;34.132;-118.018;2023-04-21T01:15:15;9.50;;;3.53;;
50367;SDS011;36281;34.132;-118.018;2023-04-21T01:17:45;9.65;;;3.90;;
50367;SDS011;36281;34.132;-118.018;2023-04-21T01:20:14;8.30;;;4.10;;
50367;SDS011;36281;34.132;-118.018;2023-04-21T01:22:45;8.15;;;4.63;;
50367;SDS011;36281;34.132;-118.018;2023-04-21T01:25:14;8.70;;;4.03;;
50367;SDS011;36281;34.132;-118.018;2023-04-21T01:27:45;9.35;;;4.13;;
50367;SDS011;36281;34.132;-118.018;2023-04-21T01:30:14;9.95;;;3.70;;
50367;SDS011;36281;34.132;-118.018;2023-04-21T01:32:43;9.25;;;3.60;;
50367;SDS011;36281;34.132;-118.018;2023-04-21T01:35:12;8.77;;;3.88;;
50367;SDS011;36281;34.132;-118.018;2023-04-21T01:37:41;11.57;;;4.28;;
50367;SDS011;36281;34.132;-118.018;2023-04-21T01:40:12;5.95;;;3.40;;
50367;SDS011;36281;34.132;-118.018;2023-04-21T01:42:41;7.40;;;3.22;;
50367;SDS011;36281;34.132;-118.018;2023-04-21T01:45:11;8.20;;;4.00;;
50367;SDS011;36281;34.132;-118.018;2023-04-21T01:47:40;5.75;;;3.40;;
50367;SDS011;36281;34.132;-118.018;2023-04-21T01:50:09;5.63;;;3.60;;
50367;SDS011;36281;34.132;-118.018;2023-04-21T01:52:38;7.43;;;3.70;;
50367;SDS011;36281;34.132;-118.018;2023-04-21T01:55:10;12.82;;;4.40;;
50367;SDS011;36281;34.132;-118.018;2023-04-21T01:57:39;8.10;;;3.50;;
50367;SDS011;36281;34.132;-118.018;2023-04-21T02:00:09;11.18;;;3.55;;
50367;SDS011;36281;34.132;-118.018;2023-04-21T02:02:39;6.47;;;3.50;;
50367;SDS011;36281;34.132;-118.018;2023-04-21T02:05:08;9.40;;;3.65;;
50367;SDS011;36281;34.132;-118.018;2023-04-21T02:07:37;6.97;;;3.58;;
50367;SDS011;36281;34.132;-118.018;2023-04-21T02:10:07;6.93;;;3.55;;
50367;SDS011;36281;34.132;-118.018;2023-04-21T02:12:38;6.72;;;3.60;;
50367;SDS011;36281;34.132;-118.018;2023-04-21T02:15:07;9.48;;;3.83;;
50367;SDS011;36281;34.132;-118.018;2023-04-21T02:17:37;7.32;;;3.63;;
50367;SDS011;36281;34.132;-118.018;2023-04-21T02:20:07;9.13;;;3.50;;
50367;SDS011;36281;34.132;-118.018;2023-04-21T02:22:38;6.45;;;3.65;;
50367;SDS011;36281;34.132;-118.018;2023-04-21T02:25:07;9.32;;;3.28;;
50367;SDS011;36281;34.132;-118.018;2023-04-21T02:27:38;9.02;;;3.60;;
50367;SDS011;36281;34.132;-118.018;2023-04-21T02:30:08;8.27;;;4.00;;
50367;SDS011;36281;34.132;-118.018;2023-04-21T02:32:37;9.48;;;3.30;;
50367;SDS011;36281;34.132;-118.018;2023-04-21T02:35:07;8.75;;;3.47;;
50367;SDS011;36281;34.132;-118.018;2023-04-21T02:37:37;7.60;;;3.22;;
50367;SDS011;36281;34.132;-118.018;2023-04-21T02:40:06;6.22;;;3.72;;
50367;SDS011;36281;34.132;-118.018;2023-04-21T02:42:38;7.60;;;3.42;;
50367;SDS011;36281;34.132;-118.018;2023-04-21T02:45:07;7.40;;;3.55;;
50367;SDS011;36281;34.132;-118.018;2023-04-21T02:47:37;5.88;;;3.72;;
50367;SDS011;36281;34.132;-118.018;2023-04-21T02:50:07;15.55;;;5.15;;
50367;SDS011;36281;34.132;-118.018;2023-04-21T02:52:36;10.77;;;3.75;;
50367;SDS011;36281;34.132;-118.018;2023-04-21T02:55:06;11.98;;;3.97;;
50367;SDS011;36281;34.132;-118.018;2023-04-21T02:57:35;9.30;;;3.80;;
50367;SDS011;36281;34.132;-118.018;2023-04-21T03:00:06;7.43;;;3.60;;
50367;SDS011;36281;34.132;-118.018;2023-04-21T03:02:39;10.43;;;3.67;;
50367;SDS011;36281;34.132;-118.018;2023-04-21T03:05:09;8.30;;;3.70;;
50367;SDS011;36281;34.132;-118.018;2023-04-21T03:07:39;11.23;;;3.88;;
50367;SDS011;36281;34.132;-118.018;2023-04-21T03:10:08;6.60;;;3.67;;
50367;SDS011;36281;34.132;-118.018;2023-04-21T03:12:39;8.80;;;4.00;;
50367;SDS011;36281;34.132;-118.018;2023-04-21T03:15:08;7.47;;;3.97;;
50367;SDS011;36281;34.132;-118.018;2023-04-21T03:17:38;11.25;;;4.68;;
50367;SDS011;36281;34.132;-118.018;2023-04-21T03:20:07;9.75;;;4.57;;
50367;SDS011;36281;34.132;-118.018;2023-04-21T03:22:38;9.23;;;4.80;;
50367;SDS011;36281;34.132;-118.018;2023-04-21T03:25:07;8.48;;;4.50;;
50367;SDS011;36281;34.132;-118.018;2023-04-21T03:27:36;11.98;;;4.57;;
50367;SDS011;36281;34.132;-118.018;2023-04-21T03:30:07;9.05;;;4.50;;
50367;SDS011;36281;34.132;-118.018;2023-04-21T03:32:37;11.07;;;5.28;;
50367;SDS011;36281;34.132;-118.018;2023-04-21T03:35:06;10.75;;;5.70;;
50367;SDS011;36281;34.132;-118.018;2023-04-21T03:37:35;12.05;;;5.03;;
50367;SDS011;36281;34.132;-118.018;2023-04-21T03:40:05;11.02;;;4.63;;
50367;SDS011;36281;34.132;-118.018;2023-04-21T03:42:35;12.02;;;5.10;;
50367;SDS011;36281;34.132;-118.018;2023-04-21T03:45:07;9.98;;;5.00;;
50367;SDS011;36281;34.132;-118.018;2023-04-21T03:47:37;9.10;;;4.65;;
50367;SDS011;36281;34.132;-118.018;2023-04-21T03:50:06;11.05;;;4.45;;
50367;SDS011;36281;34.132;-118.018;2023-04-21T03:52:36;9.13;;;4.65;;
50367;SDS011;36281;34.132;-118.018;2023-04-21T03:55:05;8.98;;;5.40;;
50367;SDS011;36281;34.132;-118.018;2023-04-21T03:57:38;10.68;;;5.60;;
50367;SDS011;36281;34.132;-118.018;2023-04-21T04:00:10;11.73;;;5.43;;
50367;SDS011;36281;34.132;-118.018;2023-04-21T04:02:40;8.55;;;5.03;;
50367;SDS011;36281;34.132;-118.018;2023-04-21T04:05:10;15.35;;;6.15;;
50367;SDS011;36281;34.132;-118.018;2023-04-21T04:07:39;13.57;;;5.70;;
50367;SDS011;36281;34.132;-118.018;2023-04-21T04:10:08;13.02;;;5.43;;
50367;SDS011;36281;34.132;-118.018;2023-04-21T04:12:38;10.95;;;5.10;;
50367;SDS011;36281;34.132;-118.018;2023-04-21T04:15:07;11.90;;;4.95;;
50367;SDS011;36281;34.132;-118.018;2023-04-21T04:17:38;11.63;;;5.40;;
50367;SDS011;36281;34.132;-118.018;2023-04-21T04:20:07;10.52;;;5.88;;
50367;SDS011;36281;34.132;-118.018;2023-04-21T04:22:36;9.45;;;5.03;;
50367;SDS011;36281;34.132;-118.018;2023-04-21T04:25:06;9.32;;;4.90;;
50367;SDS011;36281;34.132;-118.018;2023-04-21T04:27:36;14.38;;;5.10;;
50367;SDS011;36281;34.132;-118.018;2023-04-21T04:30:05;13.75;;;5.40;;
50367;SDS011;36281;34.132;-118.018;2023-04-21T04:32:37;13.68;;;5.53;;
50367;SDS011;36281;34.132;-118.018;2023-04-21T04:35:08;9.25;;;4.80;;
50367;SDS011;36281;34.132;-118.018;2023-04-21T04:37:39;8.07;;;4.95;;
50367;SDS011;36281;34.132;-118.018;2023-04-21T04:40:08;10.98;;;4.90;;
50367;SDS011;36281;34.132;-118.018;2023-04-21T04:42:42;9.48;;;5.35;;
50367;SDS011;36281;34.132;-118.018;2023-04-21T04:45:13;9.18;;;5.10;;
50367;SDS011;36281;34.132;-118.018;2023-04-21T04:47:45;8.60;;;5.03;;
50367;SDS011;36281;34.132;-118.018;2023-04-21T04:50:13;10.23;;;5.30;;
50367;SDS011;36281;34.132;-118.018;2023-04-21T04:52:43;10.23;;;5.22;;
50367;SDS011;36281;34.132;-118.018;2023-04-21T04:55:13;9.27;;;4.72;;
50367;SDS011;36281;34.132;-118.018;2023-04-21T04:57:42;9.73;;;4.90;;
50367;SDS011;36281;34.132;-118.018;2023-04-21T05:00:12;12.48;;;5.63;;
50367;SDS011;36281;34.132;-118.018;2023-04-21T05:02:41;8.85;;;4.57;;
50367;SDS011;36281;34.132;-118.018;2023-04-21T05:05:12;13.68;;;6.05;;
50367;SDS011;36281;34.132;-118.018;2023-04-21T05:07:41;14.55;;;5.70;;
50367;SDS011;36281;34.132;-118.018;2023-04-21T05:10:10;10.75;;;5.90;;
50367;SDS011;36281;34.132;-118.018;2023-04-21T05:12:39;13.20;;;5.55;;
50367;SDS011;36281;34.132;-118.018;2023-04-21T05:15:08;13.48;;;5.82;;
50367;SDS011;36281;34.132;-118.018;2023-04-21T05:17:38;16.50;;;5.80;;
50367;SDS011;36281;34.132;-118.018;2023-04-21T05:20:07;9.70;;;5.22;;
50367;SDS011;36281;34.132;-118.018;2023-04-21T05:22:38;10.30;;;4.82;;
50367;SDS011;36281;34.132;-118.018;2023-04-21T05:25:09;10.55;;;5.05;;
50367;SDS011;36281;34.132;-118.018;2023-04-21T05:27:42;10.05;;;4.68;;
50367;SDS011;36281;34.132;-118.018;2023-04-21T05:30:11;9.02;;;4.95;;
50367;SDS011;36281;34.132;-118.018;2023-04-21T05:32:40;11.82;;;4.68;;
50367;SDS011;36281;34.132;-118.018;2023-04-21T05:35:09;8.93;;;5.38;;
50367;SDS011;36281;34.132;-118.018;2023-04-21T05:37:40;7.90;;;4.72;;
50367;SDS011;36281;34.132;-118.018;2023-04-21T05:40:09;8.73;;;4.63;;
50367;SDS011;36281;34.132;-118.018;2023-04-21T05:42:38;6.05;;;4.63;;
50367;SDS011;36281;34.132;-118.018;2023-04-21T05:45:07;10.30;;;4.93;;
50367;SDS011;36281;34.132;-118.018;2023-04-21T05:47:37;6.43;;;4.78;;
50367;SDS011;36281;34.132;-118.018;2023-04-21T05:50:06;8.95;;;4.57;;
50367;SDS011;36281;34.132;-118.018;2023-04-21T05:52:35;12.02;;;4.93;;
50367;SDS011;36281;34.132;-118.018;2023-04-21T05:55:06;7.68;;;4.78;;
50367;SDS011;36281;34.132;-118.018;2023-04-21T05:57:35;10.30;;;5.15;;
50367;SDS011;36281;34.132;-118.018;2023-04-21T06:00:05;11.43;;;5.18;;
50367;SDS011;36281;34.132;-118.018;2023-04-21T06:02:35;10.60;;;5.20;;
50367;SDS011;36281;34.132;-118.018;2023-04-21T06:05:05;15.05;;;5.00;;
50367;SDS011;36281;34.132;-118.018;2023-04-21T06:07:34;8.88;;;4.95;;
50367;SDS011;36281;34.132;-118.018;2023-04-21T06:10:04;10.45;;;4.95;;
50367;SDS011;36281;34.132;-118.018;2023-04-21T06:12:35;8.77;;;4.63;;
50367;SDS011;36281;34.132;-118.018;2023-04-21T06:15:05;13.65;;;4.80;;
50367;SDS011;36281;34.132;-118.018;2023-04-21T06:17:34;8.55;;;4.70;;
50367;SDS011;36281;34.132;-118.018;2023-04-21T06:20:04;10.63;;;5.18;;
50367;SDS011;36281;34.132;-118.018;2023-04-21T06:22:34;12.63;;;5.57;;
50367;SDS011;36281;34.132;-118.018;2023-04-21T06:25:04;13.20;;;5.50;;
50367;SDS011;36281;34.132;-118.018;2023-04-21T06:27:35;9.00;;;4.97;;
50367;SDS011;36281;34.132;-118.018;2023-04-21T06:30:04;9.88;;;5.07;;
50367;SDS011;36281;34.132;-118.018;2023-04-21T06:32:34;11.18;;;5.03;;
50367;SDS011;36281;34.132;-118.018;2023-04-21T06:35:04;13.50;;;5.32;;
50367;SDS011;36281;34.132;-118.018;2023-04-21T06:37:33;6.63;;;4.65;;
50367;SDS011;36281;34.132;-118.018;2023-04-21T06:40:02;9.32;;;4.40;;
50367;SDS011;36281;34.132;-118.018;2023-04-21T06:42:34;10.02;;;4.95;;
50367;SDS011;36281;34.132;-118.018;2023-04-21T06:45:03;7.97;;;4.50;;
50367;SDS011;36281;34.132;-118.018;2023-04-21T06:47:33;9.88;;;4.88;;
50367;SDS011;36281;34.132;-118.018;2023-04-21T06:50:03;12.48;;;4.82;;
50367;SDS011;36281;34.132;-118.018;2023-04-21T06:52:33;10.05;;;4.68;;
50367;SDS011;36281;34.132;-118.018;2023-04-21T06:55:02;7.97;;;4.88;;
50367;SDS011;36281;34.132;-118.018;2023-04-21T06:57:31;9.45;;;4.57;;
50367;SDS011;36281;34.132;-118.018;2023-04-21T07:00:02;9.70;;;5.03;;
50367;SDS011;36281;34.132;-118.018;2023-04-21T07:02:32;11.55;;;4.53;;
50367;SDS011;36281;34.132;-118.018;2023-04-21T07:05:01;9.35;;;4.70;;
50367;SDS011;36281;34.132;-118.018;2023-04-21T07:07:31;8.98;;;4.70;;
50367;SDS011;36281;34.132;-118.018;2023-04-21T07:10:00;10.50;;;4.97;;
50367;SDS011;36281;34.132;-118.018;2023-04-21T07:12:29;14.35;;;5.10;;
50367;SDS011;36281;34.132;-118.018;2023-04-21T07:14:58;10.38;;;4.60;;
50367;SDS011;36281;34.132;-118.018;2023-04-21T07:17:29;9.55;;;4.00;;
50367;SDS011;36281;34.132;-118.018;2023-04-21T07:19:58;9.07;;;4.28;;
50367;SDS011;36281;34.132;-118.018;2023-04-21T07:22:27;9.45;;;4.60;;
50367;SDS011;36281;34.132;-118.018;2023-04-21T07:24:57;9.57;;;4.57;;
50367;SDS011;36281;34.132;-118.018;2023-04-21T07:27:26;7.97;;;4.47;;
50367;SDS011;36281;34.132;-118.018;2023-04-21T07:29:55;8.35;;;4.25;;
50367;SDS011;36281;34.132;-118.018;2023-04-21T07:32:24;10.07;;;4.60;;
50367;SDS011;36281;34.132;-118.018;2023-04-21T07:34:55;10.18;;;4.18;;
50367;SDS011;36281;34.132;-118.018;2023-04-21T07:37:24;9.27;;;4.22;;
50367;SDS011;36281;34.132;-118.018;2023-04-21T07:39:53;6.85;;;4.25;;
50367;SDS011;36281;34.132;-118.018;2023-04-21T07:42:22;7.93;;;4.15;;
50367;SDS011;36281;34.132;-118.018;2023-04-21T07:44:53;11.02;;;4.65;;
50367;SDS011;36281;34.132;-118.018;2023-04-21T07:47:24;7.38;;;4.53;;
50367;SDS011;36281;34.132;-118.018;2023-04-21T07:49:53;9.15;;;4.32;;
50367;SDS011;36281;34.132;-118.018;2023-04-21T07:52:23;10.02;;;4.75;;
50367;SDS011;36281;34.132;-118.018;2023-04-21T07:54:53;6.72;;;4.30;;
50367;SDS011;36281;34.132;-118.018;2023-04-21T07:57:22;6.18;;;4.28;;
50367;SDS011;36281;34.132;-118.018;2023-04-21T07:59:51;9.20;;;4.68;;
50367;SDS011;36281;34.132;-118.018;2023-04-21T08:02:21;10.00;;;4.68;;
50367;SDS011;36281;34.132;-118.018;2023-04-21T08:04:50;6.85;;;4.47;;
50367;SDS011;36281;34.132;-118.018;2023-04-21T08:07:20;8.15;;;4.78;;
50367;SDS011;36281;34.132;-118.018;2023-04-21T08:09:50;10.10;;;4.45;;
50367;SDS011;36281;34.132;-118.018;2023-04-21T08:12:19;9.55;;;4.55;;
50367;SDS011;36281;34.132;-118.018;2023-04-21T08:14:48;7.93;;;4.15;;
50367;SDS011;36281;34.132;-118.018;2023-04-21T08:17:17;9.93;;;4.68;;
50367;SDS011;36281;34.132;-118.018;2023-04-21T08:19:46;8.52;;;4.88;;
50367;SDS011;36281;34.132;-118.018;2023-04-21T08:22:15;10.07;;;4.55;;
50367;SDS011;36281;34.132;-118.018;2023-04-21T08:24:46;7.68;;;4.10;;
50367;SDS011;36281;34.132;-118.018;2023-04-21T08:27:15;7.63;;;4.05;;
50367;SDS011;36281;34.132;-118.018;2023-04-21T08:29:44;10.35;;;4.80;;
50367;SDS011;36281;34.132;-118.018;2023-04-21T08:32:13;8.20;;;4.43;;
50367;SDS011;36281;34.132;-118.018;2023-04-21T08:34:42;10.02;;;4.15;;
50367;SDS011;36281;34.132;-118.018;2023-04-21T08:37:12;8.57;;;4.28;;
50367;SDS011;36281;34.132;-118.018;2023-04-21T08:39:41;9.57;;;4.38;;
50367;SDS011;36281;34.132;-118.018;2023-04-21T08:42:12;6.40;;;4.25;;
50367;SDS011;36281;34.132;-118.018;2023-04-21T08:44:41;6.03;;;3.97;;
50367;SDS011;36281;34.132;-118.018;2023-04-21T08:47:11;7.70;;;3.80;;
50367;SDS011;36281;34.132;-118.018;2023-04-21T08:49:41;8.45;;;4.15;;
50367;SDS011;36281;34.132;-118.018;2023-04-21T08:52:13;5.57;;;3.88;;
50367;SDS011;36281;34.132;-118.018;2023-04-21T08:54:42;7.72;;;3.70;;
50367;SDS011;36281;34.132;-118.018;2023-04-21T08:57:13;7.82;;;4.13;;
50367;SDS011;36281;34.132;-118.018;2023-04-21T08:59:43;9.07;;;4.05;;
50367;SDS011;36281;34.132;-118.018;2023-04-21T09:02:13;8.50;;;3.78;;
50367;SDS011;36281;34.132;-118.018;2023-04-21T09:04:43;6.85;;;4.00;;
50367;SDS011;36281;34.132;-118.018;2023-04-21T09:07:29;9.13;;;4.32;;
50367;SDS011;36281;34.132;-118.018;2023-04-21T09:10:00;7.38;;;4.32;;
50367;SDS011;36281;34.132;-118.018;2023-04-21T09:12:31;10.38;;;4.22;;
50367;SDS011;36281;34.132;-118.018;2023-04-21T09:15:03;11.70;;;4.50;;
50367;SDS011;36281;34.132;-118.018;2023-04-21T09:17:32;7.25;;;4.07;;
50367;SDS011;36281;34.132;-118.018;2023-04-21T09:20:12;8.20;;;4.22;;
50367;SDS011;36281;34.132;-118.018;2023-04-21T09:22:42;7.18;;;4.25;;
50367;SDS011;36281;34.132;-118.018;2023-04-21T09:25:14;6.63;;;4.03;;
50367;SDS011;36281;34.132;-118.018;2023-04-21T09:27:46;11.70;;;4.38;;
50367;SDS011;36281;34.132;-118.018;2023-04-21T09:30:17;6.38;;;4.13;;
50367;SDS011;36281;34.132;-118.018;2023-04-21T09:32:47;6.72;;;3.60;;
50367;SDS011;36281;34.132;-118.018;2023-04-21T09:35:16;9.13;;;4.32;;
50367;SDS011;36281;34.132;-118.018;2023-04-21T09:37:45;6.97;;;4.28;;
50367;SDS011;36281;34.132;-118.018;2023-04-21T09:40:15;7.75;;;4.07;;
50367;SDS011;36281;34.132;-118.018;2023-04-21T09:42:47;7.18;;;3.90;;
50367;SDS011;36281;34.132;-118.018;2023-04-21T09:45:17;6.78;;;4.18;;
50367;SDS011;36281;34.132;-118.018;2023-04-21T09:47:49;11.32;;;4.15;;
50367;SDS011;36281;34.132;-118.018;2023-04-21T09:50:23;7.82;;;3.97;;
50367;SDS011;36281;34.132;-118.018;2023-04-21T09:53:13;8.48;;;4.10;;
50367;SDS011;36281;34.132;-118.018;2023-04-21T09:55:44;8.15;;;4.65;;
50367;SDS011;36281;34.132;-118.018;2023-04-21T09:58:19;9.27;;;4.05;;
50367;SDS011;36281;34.132;-118.018;2023-04-21T10:00:51;11.93;;;4.22;;
50367;SDS011;36281;34.132;-118.018;2023-04-21T10:03:24;8.15;;;3.97;;
50367;SDS011;36281;34.132;-118.018;2023-04-21T10:05:55;8.48;;;4.30;;
50367;SDS011;36281;34.132;-118.018;2023-04-21T10:08:25;5.63;;;4.28;;
50367;SDS011;36281;34.132;-118.018;2023-04-21T10:10:54;7.47;;;4.22;;
50367;SDS011;36281;34.132;-118.018;2023-04-21T10:13:25;7.63;;;4.10;;
50367;SDS011;36281;34.132;-118.018;2023-04-21T10:16:04;8.40;;;4.22;;
50367;SDS011;36281;34.132;-118.018;2023-04-21T10:18:35;7.40;;;4.05;;
50367;SDS011;36281;34.132;-118.018;2023-04-21T10:21:06;6.32;;;4.30;;
50367;SDS011;36281;34.132;-118.018;2023-04-21T10:23:36;6.30;;;3.83;;
50367;SDS011;36281;34.132;-118.018;2023-04-21T10:26:10;7.95;;;4.13;;
50367;SDS011;36281;34.132;-118.018;2023-04-21T10:28:44;8.18;;;4.47;;
50367;SDS011;36281;34.132;-118.018;2023-04-21T10:31:23;9.02;;;4.15;;
50367;SDS011;36281;34.132;-118.018;2023-04-21T10:34:15;7.93;;;4.32;;
50367;SDS011;36281;34.132;-118.018;2023-04-21T10:36:50;9.25;;;4.55;;
50367;SDS011;36281;34.132;-118.018;2023-04-21T10:39:43;9.57;;;3.95;;
50367;SDS011;36281;34.132;-118.018;2023-04-21T10:42:18;6.90;;;4.17;;
50367;SDS011;36281;34.132;-118.018;2023-04-21T10:45:04;8.55;;;4.85;;
50367;SDS011;36281;34.132;-118.018;2023-04-21T10:47:39;7.53;;;4.20;;
50367;SDS011;36281;34.132;-118.018;2023-04-21T10:50:14;8.27;;;4.30;;
50367;SDS011;36281;34.132;-118.018;2023-04-21T10:52:45;7.45;;;4.78;;
50367;SDS011;36281;34.132;-118.018;2023-04-21T10:55:20;11.75;;;4.60;;
50367;SDS011;36281;34.132;-118.018;2023-04-21T10:57:49;6.85;;;4.00;;
50367;SDS011;36281;34.132;-118.018;2023-04-21T11:00:20;5.32;;;4.20;;
50367;SDS011;36281;34.132;-118.018;2023-04-21T11:02:57;8.68;;;4.38;;
50367;SDS011;36281;34.132;-118.018;2023-04-21T11:05:28;6.70;;;4.88;;
50367;SDS011;36281;34.132;-118.018;2023-04-21T11:08:02;6.95;;;4.45;;
50367;SDS011;36281;34.132;-118.018;2023-04-21T11:10:48;10.48;;;4.90;;
50367;SDS011;36281;34.132;-118.018;2023-04-21T11:13:22;9.05;;;4.57;;
50367;SDS011;36281;34.132;-118.018;2023-04-21T11:16:00;7.05;;;4.40;;
50367;SDS011;36281;34.132;-118.018;2023-04-21T11:18:38;7.43;;;4.28;;
50367;SDS011;36281;34.132;-118.018;2023-04-21T11:21:09;7.90;;;4.47;;
50367;SDS011;36281;34.132;-118.018;2023-04-21T11:23:51;8.38;;;4.93;;
50367;SDS011;36281;34.132;-118.018;2023-04-21T11:26:29;8.98;;;4.50;;
50367;SDS011;36281;34.132;-118.018;2023-04-21T11:29:00;7.13;;;4.70;;
50367;SDS011;36281;34.132;-118.018;2023-04-21T11:31:31;7.65;;;4.25;;
50367;SDS011;36281;34.132;-118.018;2023-04-21T11:34:01;8.38;;;4.45;;
50367;SDS011;36281;34.132;-118.018;2023-04-21T11:36:34;7.00;;;4.13;;
50367;SDS011;36281;34.132;-118.018;2023-04-21T11:39:04;7.85;;;4.47;;
50367;SDS011;36281;34.132;-118.018;2023-04-21T11:41:34;8.43;;;4.40;;
50367;SDS011;36281;34.132;-118.018;2023-04-21T11:44:06;7.05;;;4.53;;
50367;SDS011;36281;34.132;-118.018;2023-04-21T11:46:42;7.32;;;4.20;;
50367;SDS011;36281;34.132;-118.018;2023-04-21T11:49:13;8.05;;;4.50;;
50367;SDS011;36281;34.132;-118.018;2023-04-21T11:51:44;8.73;;;5.18;;
50367;SDS011;36281;34.132;-118.018;2023-04-21T11:54:17;8.40;;;5.05;;
50367;SDS011;36281;34.132;-118.018;2023-04-21T11:56:48;7.45;;;4.30;;
50367;SDS011;36281;34.132;-118.018;2023-04-21T11:59:21;9.02;;;4.68;;
50367;SDS011;36281;34.132;-118.018;2023-04-21T12:01:57;9.23;;;4.63;;
50367;SDS011;36281;34.132;-118.018;2023-04-21T12:04:26;8.02;;;4.32;;
50367;SDS011;36281;34.132;-118.018;2023-04-21T12:06:59;8.43;;;4.30;;
50367;SDS011;36281;34.132;-118.018;2023-04-21T12:09:29;6.65;;;4.35;;
50367;SDS011;36281;34.132;-118.018;2023-04-21T12:11:58;8.23;;;3.95;;
50367;SDS011;36281;34.132;-118.018;2023-04-21T12:14:31;7.13;;;4.63;;
50367;SDS011;36281;34.132;-118.018;2023-04-21T12:17:05;6.80;;;4.50;;
50367;SDS011;36281;34.132;-118.018;2023-04-21T12:19:35;8.02;;;4.68;;
50367;SDS011;36281;34.132;-118.018;2023-04-21T12:22:06;6.93;;;4.25;;
50367;SDS011;36281;34.132;-118.018;2023-04-21T12:24:36;6.90;;;3.95;;
50367;SDS011;36281;34.132;-118.018;2023-04-21T12:27:06;10.52;;;4.70;;
50367;SDS011;36281;34.132;-118.018;2023-04-21T12:29:36;9.55;;;4.35;;
50367;SDS011;36281;34.132;-118.018;2023-04-21T12:32:07;10.90;;;5.00;;
50367;SDS011;36281;34.132;-118.018;2023-04-21T12:34:37;8.52;;;4.28;;
50367;SDS011;36281;34.132;-118.018;2023-04-21T12:37:06;8.98;;;4.57;;
50367;SDS011;36281;34.132;-118.018;2023-04-21T12:39:35;8.65;;;4.30;;
50367;SDS011;36281;34.132;-118.018;2023-04-21T12:42:04;6.40;;;4.07;;
50367;SDS011;36281;34.132;-118.018;2023-04-21T12:44:33;7.07;;;4.35;;
50367;SDS011;36281;34.132;-118.018;2023-04-21T12:47:02;6.60;;;3.95;;
50367;SDS011;36281;34.132;-118.018;2023-04-21T12:49:33;9.32;;;4.30;;
50367;SDS011;36281;34.132;-118.018;2023-04-21T12:52:02;6.93;;;4.45;;
50367;SDS011;36281;34.132;-118.018;2023-04-21T12:54:32;9.00;;;4.65;;
50367;SDS011;36281;34.132;-118.018;2023-04-21T12:57:01;8.43;;;4.30;;
50367;SDS011;36281;34.132;-118.018;2023-04-21T12:59:31;9.43;;;4.22;;
50367;SDS011;36281;34.132;-118.018;2023-04-21T13:02:00;10.60;;;4.10;;
50367;SDS011;36281;34.132;-118.018;2023-04-21T13:04:29;10.65;;;4.18;;
50367;SDS011;36281;34.132;-118.018;2023-04-21T13:07:00;8.88;;;4.60;;
50367;SDS011;36281;34.132;-118.018;2023-04-21T13:09:29;8.73;;;4.82;;
50367;SDS011;36281;34.132;-118.018;2023-04-21T13:11:59;8.80;;;4.80;;
50367;SDS011;36281;34.132;-118.018;2023-04-21T13:14:28;10.45;;;5.03;;
50367;SDS011;36281;34.132;-118.018;2023-04-21T13:16:57;11.48;;;4.57;;
50367;SDS011;36281;34.132;-118.018;2023-04-21T13:19:26;11.15;;;4.70;;
50367;SDS011;36281;34.132;-118.018;2023-04-21T13:21:56;13.48;;;4.78;;
50367;SDS011;36281;34.132;-118.018;2023-04-21T13:24:27;11.45;;;4.07;;
50367;SDS011;36281;34.132;-118.018;2023-04-21T13:26:57;9.40;;;4.55;;
50367;SDS011;36281;34.132;-118.018;2023-04-21T13:29:28;11.32;;;4.53;;
50367;SDS011;36281;34.132;-118.018;2023-04-21T13:32:00;7.65;;;4.40;;
50367;SDS011;36281;34.132;-118.018;2023-04-21T13:34:30;8.27;;;4.45;;
50367;SDS011;36281;34.132;-118.018;2023-04-21T13:36:59;10.50;;;4.82;;
50367;SDS011;36281;34.132;-118.018;2023-04-21T13:39:30;10.30;;;4.57;;
50367;SDS011;36281;34.132;-118.018;2023-04-21T13:42:00;7.80;;;4.40;;
50367;SDS011;36281;34.132;-118.018;2023-04-21T13:44:29;7.60;;;4.30;;
50367;SDS011;36281;34.132;-118.018;2023-04-21T13:46:58;8.20;;;4.25;;
50367;SDS011;36281;34.132;-118.018;2023-04-21T13:49:27;11.35;;;4.65;;
50367;SDS011;36281;34.132;-118.018;2023-04-21T13:51:57;10.35;;;4.90;;
50367;SDS011;36281;34.132;-118.018;2023-04-21T13:54:26;9.85;;;5.00;;
50367;SDS011;36281;34.132;-118.018;2023-04-21T13:56:57;11.13;;;4.50;;
50367;SDS011;36281;34.132;-118.018;2023-04-21T13:59:26;11.85;;;4.70;;
50367;SDS011;36281;34.132;-118.018;2023-04-21T14:01:55;8.88;;;4.38;;
50367;SDS011;36281;34.132;-118.018;2023-04-21T14:04:25;8.43;;;4.40;;
50367;SDS011;36281;34.132;-118.018;2023-04-21T14:06:54;10.50;;;5.03;;
50367;SDS011;36281;34.132;-118.018;2023-04-21T14:09:23;15.02;;;6.07;;
50367;SDS011;36281;34.132;-118.018;2023-04-21T14:11:52;11.10;;;5.38;;
50367;SDS011;36281;34.132;-118.018;2023-04-21T14:14:24;12.75;;;5.22;;
50367;SDS011;36281;34.132;-118.018;2023-04-21T14:17:04;10.35;;;4.97;;
50367;SDS011;36281;34.132;-118.018;2023-04-21T14:19:34;12.15;;;5.45;;
50367;SDS011;36281;34.132;-118.018;2023-04-21T14:22:03;10.48;;;5.28;;
50367;SDS011;36281;34.132;-118.018;2023-04-21T14:24:32;8.77;;;4.55;;